Time;durP1;ratioP1;P1;durP2;ratioP2;P2;SDS_P1;SDS_P2;PMS_P1;PMS_P2;Temp;Humidity;BMP_temperature;BMP_pressure;BME280_temperature;BME280_humidity;BME280_pressure;Samples;Min_cycle;Max_cycle;Signal;HPM_P1;HPM_P2
2022/01/08 00:00:35;;;;;;;11.43;2.88;;;3.10;99.90;;;;;;5039429;28;20056;-83
2022/01/08 00:03:01;;;;;;;10.98;2.10;;;2.90;99.90;;;;;;5023820;28;20534;-84
2022/01/08 00:05:26;;;;;;;7.32;2.20;;;2.90;99.90;;;;;;5007468;28;20448;-84
2022/01/08 00:07:52;;;;;;;7.45;2.42;;;2.90;99.90;;;;;;4993004;28;20782;-84
2022/01/08 00:10:18;;;;;;;7.50;2.42;;;2.90;99.90;;;;;;5001781;28;20075;-84
2022/01/08 00:12:44;;;;;;;5.90;2.15;;;2.80;99.90;;;;;;5034909;28;20048;-84
2022/01/08 00:15:10;;;;;;;6.38;2.05;;;2.80;99.90;;;;;;5035818;28;20079;-83
2022/01/08 00:17:36;;;;;;;7.57;3.28;;;3.00;99.90;;;;;;5024616;28;21649;-83
2022/01/08 00:20:04;;;;;;;6.65;2.10;;;2.80;99.90;;;;;;5024667;28;20512;-84
2022/01/08 00:22:30;;;;;;;7.70;2.65;;;2.80;99.90;;;;;;5024269;28;20056;-84
2022/01/08 00:24:55;;;;;;;9.05;2.38;;;2.80;99.90;;;;;;5021704;28;20041;-84
2022/01/08 00:27:22;;;;;;;12.00;2.00;;;2.90;99.90;;;;;;4987757;28;20050;-84
2022/01/08 00:29:49;;;;;;;8.52;2.25;;;2.90;99.90;;;;;;5004126;28;20152;-84
2022/01/08 00:32:15;;;;;;;6.50;2.17;;;2.80;99.90;;;;;;5003226;28;20038;-83
2022/01/08 00:34:42;;;;;;;4.72;1.90;;;2.90;99.90;;;;;;5006460;28;20162;-84
2022/01/08 00:37:08;;;;;;;5.85;1.98;;;2.90;99.90;;;;;;5023705;28;20057;-83
2022/01/08 00:39:34;;;;;;;6.07;1.88;;;2.80;99.90;;;;;;5013044;28;20046;-84
2022/01/08 00:42:00;;;;;;;9.90;2.40;;;2.80;99.90;;;;;;5023882;28;20030;-84
2022/01/08 00:44:26;;;;;;;10.93;2.20;;;2.90;99.90;;;;;;5020042;28;20406;-84
2022/01/08 00:46:52;;;;;;;7.63;1.90;;;2.90;99.90;;;;;;5003827;28;20061;-83
2022/01/08 00:49:18;;;;;;;7.55;2.20;;;2.90;99.90;;;;;;5022794;28;20033;-84
2022/01/08 00:51:44;;;;;;;5.88;1.88;;;2.90;99.90;;;;;;5024717;28;20034;-83
2022/01/08 00:54:10;;;;;;;7.13;1.80;;;3.00;99.90;;;;;;5043370;28;20616;-83
2022/01/08 00:56:35;;;;;;;5.82;1.92;;;2.90;99.90;;;;;;5010838;28;20026;-83
2022/01/08 00:59:03;;;;;;;5.30;1.92;;;3.00;99.90;;;;;;4990872;28;20051;-83
2022/01/08 01:01:29;;;;;;;6.25;1.67;;;2.90;99.90;;;;;;5034115;28;20045;-83
2022/01/08 01:03:54;;;;;;;3.80;1.90;;;2.90;99.90;;;;;;5028277;28;20671;-83
2022/01/08 01:06:20;;;;;;;9.73;1.98;;;3.00;99.90;;;;;;5024546;28;20539;-83
2022/01/08 01:08:46;;;;;;;5.40;1.90;;;3.00;99.90;;;;;;5040714;28;20091;-83
2022/01/08 01:11:11;;;;;;;5.88;1.58;;;3.00;99.90;;;;;;5004144;28;20387;-83
2022/01/08 01:13:37;;;;;;;6.68;1.60;;;3.00;99.90;;;;;;5025768;28;20128;-83
2022/01/08 01:16:03;;;;;;;6.53;1.70;;;3.00;99.90;;;;;;5010896;28;20092;-83
2022/01/08 01:18:29;;;;;;;7.03;1.40;;;3.00;99.90;;;;;;5024288;28;20362;-83
2022/01/08 01:20:55;;;;;;;3.75;1.30;;;3.00;99.90;;;;;;5003982;28;20037;-83
2022/01/08 01:23:28;;;;;;;4.43;0.90;;;3.00;99.90;;;;;;4990935;28;20080;-82
2022/01/08 01:25:59;;;;;;;8.65;0.95;;;2.90;99.90;;;;;;5028318;28;20041;-83
2022/01/08 01:41:08;;;;;;;3.95;1.13;;;3.20;99.90;;;;;;5038457;28;20041;-84
2022/01/08 01:47:14;;;;;;;1.42;0.60;;;2.80;99.90;;;;;;5026579;28;20109;-83
2022/01/08 01:49:42;;;;;;;2.67;0.60;;;2.90;99.90;;;;;;5033415;28;20034;-84
2022/01/08 01:52:12;;;;;;;11.75;3.03;;;3.00;99.90;;;;;;5060683;28;20033;-83
2022/01/08 01:54:38;;;;;;;4.95;1.02;;;3.00;99.90;;;;;;5040108;28;20068;-83
2022/01/08 01:57:05;;;;;;;4.93;0.80;;;2.90;99.90;;;;;;4999211;28;20514;-83
2022/01/08 01:59:32;;;;;;;4.55;0.93;;;2.90;99.90;;;;;;5044203;28;20033;-83
2022/01/08 02:01:59;;;;;;;8.40;2.08;;;2.90;99.90;;;;;;5010854;28;20033;-83
2022/01/08 02:04:25;;;;;;;5.85;1.10;;;3.10;99.90;;;;;;5043190;28;20073;-83
2022/01/08 02:06:51;;;;;;;6.38;1.05;;;3.00;99.90;;;;;;5015030;28;22032;-84
2022/01/08 02:09:17;;;;;;;4.50;0.90;;;3.00;99.90;;;;;;5028157;28;20030;-83
2022/01/08 02:12:04;;;;;;;3.58;0.90;;;3.00;99.90;;;;;;5010771;28;20462;-83
2022/01/08 02:14:33;;;;;;;8.10;1.02;;;3.10;99.90;;;;;;5028786;28;20030;-83
2022/01/08 02:16:59;;;;;;;4.80;1.10;;;3.20;99.90;;;;;;5009607;28;20040;-83
2022/01/08 02:19:26;;;;;;;4.45;1.00;;;3.10;99.90;;;;;;5043571;28;20037;-83
2022/01/08 02:21:55;;;;;;;5.38;1.30;;;3.00;99.90;;;;;;5037081;28;20046;-83
2022/01/08 02:24:21;;;;;;;6.82;1.17;;;3.00;99.90;;;;;;5008569;28;20494;-83
2022/01/08 02:26:46;;;;;;;3.20;0.82;;;3.00;99.90;;;;;;5041804;28;20099;-83
2022/01/08 02:29:16;;;;;;;2.90;0.80;;;3.00;99.90;;;;;;5011222;28;20057;-83
2022/01/08 02:32:00;;;;;;;3.63;0.80;;;3.00;99.90;;;;;;5040723;28;20048;-83
2022/01/08 02:34:27;;;;;;;4.57;1.02;;;3.00;99.90;;;;;;5013639;28;20037;-83
2022/01/08 02:36:58;;;;;;;9.05;1.38;;;3.00;99.90;;;;;;5011059;28;20060;-84
2022/01/08 02:39:25;;;;;;;5.50;1.10;;;2.90;99.90;;;;;;4994228;28;20516;-83
2022/01/08 02:41:56;;;;;;;4.53;1.00;;;3.10;99.90;;;;;;5040940;28;20728;-83
2022/01/08 02:44:22;;;;;;;3.58;1.00;;;2.90;99.90;;;;;;4996188;28;20041;-83
2022/01/08 02:46:48;;;;;;;6.15;0.85;;;3.00;99.90;;;;;;5009677;28;20039;-83
2022/01/08 02:49:14;;;;;;;3.70;0.90;;;2.90;99.90;;;;;;5004601;28;20056;-83
2022/01/08 02:51:39;;;;;;;3.97;1.05;;;3.10;99.90;;;;;;5008806;28;20208;-84
2022/01/08 02:54:09;;;;;;;7.68;1.27;;;2.80;99.90;;;;;;4994184;28;20524;-83
2022/01/08 02:56:44;;;;;;;8.18;1.40;;;2.80;99.90;;;;;;5004436;28;20855;-83
2022/01/08 02:59:10;;;;;;;2.90;0.88;;;2.80;99.90;;;;;;5020718;28;20073;-83
2022/01/08 03:01:36;;;;;;;4.60;0.95;;;3.20;99.90;;;;;;5040458;28;20040;-83
2022/01/08 03:04:03;;;;;;;6.90;1.35;;;2.80;99.90;;;;;;5005756;28;20037;-83
2022/01/08 03:06:29;;;;;;;7.13;1.58;;;2.80;99.90;;;;;;5026969;28;20057;-84
2022/01/08 03:08:55;;;;;;;4.07;0.82;;;2.80;99.90;;;;;;5002297;28;23863;-84
2022/01/08 03:11:20;;;;;;;5.70;1.08;;;2.80;99.90;;;;;;5010134;28;20520;-84
2022/01/08 03:13:46;;;;;;;3.78;1.00;;;2.80;99.90;;;;;;4992917;28;20032;-84
2022/01/08 03:16:14;;;;;;;6.70;1.20;;;2.80;99.90;;;;;;5042404;28;20033;-83
2022/01/08 03:18:40;;;;;;;9.90;3.00;;;2.80;99.90;;;;;;5027968;28;20056;-83
2022/01/08 03:21:14;;;;;;;3.15;0.77;;;2.80;99.90;;;;;;5029320;28;20073;-83
2022/01/08 03:23:53;;;;;;;4.85;1.35;;;2.90;99.90;;;;;;5008437;28;20045;-84
2022/01/08 03:26:20;;;;;;;4.68;0.85;;;2.80;99.90;;;;;;5012378;28;20033;-83
2022/01/08 03:28:47;;;;;;;5.57;1.23;;;2.70;99.90;;;;;;5022968;28;20124;-82
2022/01/08 03:31:14;;;;;;;4.53;1.67;;;2.70;99.90;;;;;;5002518;28;20054;-83
2022/01/08 03:33:41;;;;;;;4.32;1.50;;;2.70;99.90;;;;;;4989943;28;20045;-84
2022/01/08 03:36:07;;;;;;;4.50;0.98;;;2.90;99.90;;;;;;5046022;28;20029;-83
2022/01/08 03:38:34;;;;;;;8.07;1.48;;;2.60;99.90;;;;;;4991329;28;20111;-83
2022/01/08 03:41:00;;;;;;;6.47;1.13;;;2.80;99.90;;;;;;5025167;28;20095;-84
2022/01/08 03:43:26;;;;;;;10.05;1.13;;;2.70;99.90;;;;;;5040263;28;20063;-83
2022/01/08 03:45:52;;;;;;;2.65;0.93;;;2.70;99.90;;;;;;5005129;28;20257;-83
2022/01/08 03:50:44;;;;;;;5.30;1.08;;;2.70;99.90;;;;;;5040298;28;20073;-84
2022/01/08 03:53:10;;;;;;;3.55;0.98;;;2.70;99.90;;;;;;5023414;28;20037;-84
2022/01/08 03:55:35;;;;;;;3.40;1.10;;;2.70;99.90;;;;;;5015105;28;20049;-84
2022/01/08 03:58:01;;;;;;;5.70;1.10;;;2.70;99.90;;;;;;5059197;28;20545;-84
2022/01/08 04:00:27;;;;;;;4.07;0.82;;;2.70;99.90;;;;;;5042893;28;20041;-83
2022/01/08 04:02:53;;;;;;;7.38;1.05;;;2.70;99.90;;;;;;5036006;28;20038;-83
2022/01/08 04:05:19;;;;;;;5.68;1.20;;;2.70;99.90;;;;;;5010323;28;20079;-83
2022/01/08 04:07:45;;;;;;;8.00;1.30;;;2.70;99.90;;;;;;5008243;28;20046;-82
2022/01/08 04:10:11;;;;;;;3.80;0.95;;;2.70;99.90;;;;;;5023186;28;20052;-83
2022/01/08 04:12:44;;;;;;;7.07;1.20;;;2.70;99.90;;;;;;5042286;28;20147;-83
2022/01/08 04:17:52;;;;;;;6.07;1.40;;;2.70;99.90;;;;;;5037866;28;20065;-83
2022/01/08 04:20:20;;;;;;;7.88;1.15;;;2.70;99.90;;;;;;5023557;28;20047;-83
2022/01/08 04:22:49;;;;;;;5.45;1.10;;;2.70;99.90;;;;;;5039459;28;20045;-83
2022/01/08 04:25:16;;;;;;;4.22;1.08;;;2.50;99.90;;;;;;4993828;28;20059;-83
2022/01/08 04:27:42;;;;;;;3.72;0.77;;;2.70;99.90;;;;;;5006617;28;20120;-84
2022/01/08 04:30:08;;;;;;;5.70;1.08;;;2.80;99.90;;;;;;5005718;28;20522;-84
2022/01/08 04:32:34;;;;;;;7.38;1.00;;;2.70;99.90;;;;;;5010698;28;20037;-84
2022/01/08 04:35:00;;;;;;;8.77;1.42;;;2.70;99.90;;;;;;5025878;28;20505;-84
2022/01/08 04:37:25;;;;;;;7.07;1.20;;;2.80;99.90;;;;;;5021490;28;20033;-83
2022/01/08 04:39:51;;;;;;;4.45;1.73;;;2.80;99.90;;;;;;5040259;28;20045;-83
2022/01/08 04:42:17;;;;;;;5.72;1.17;;;2.80;99.90;;;;;;5006012;28;20068;-84
2022/01/08 04:44:42;;;;;;;8.23;1.52;;;2.90;99.90;;;;;;5005602;28;20049;-83
2022/01/08 04:47:08;;;;;;;11.70;1.15;;;2.90;99.90;;;;;;5047708;28;20034;-84
2022/01/08 04:49:34;;;;;;;6.63;1.25;;;3.00;99.90;;;;;;5011687;28;20041;-84
2022/01/08 04:52:00;;;;;;;10.02;0.95;;;3.30;99.90;;;;;;5004735;28;20037;-84
2022/01/08 04:54:26;;;;;;;6.00;1.08;;;3.10;99.90;;;;;;5021569;28;21818;-84
2022/01/08 04:56:52;;;;;;;6.55;1.70;;;3.10;99.90;;;;;;5020742;28;20041;-84
2022/01/08 04:59:18;;;;;;;8.65;1.58;;;3.10;99.90;;;;;;5026546;28;20140;-83
2022/01/08 05:01:44;;;;;;;4.63;1.80;;;3.10;99.90;;;;;;5026431;28;20124;-84
2022/01/08 05:04:10;;;;;;;6.80;1.05;;;3.10;99.90;;;;;;5012921;28;20045;-84
2022/01/08 05:06:36;;;;;;;5.93;1.42;;;3.10;99.90;;;;;;5037415;28;20135;-84
2022/01/08 05:09:03;;;;;;;5.05;1.02;;;3.10;99.90;;;;;;5044988;28;20440;-84
2022/01/08 05:11:30;;;;;;;7.15;1.30;;;3.20;99.90;;;;;;5044815;23;20044;-81
2022/01/08 05:13:57;;;;;;;5.38;1.20;;;3.10;99.90;;;;;;5028610;28;20044;-82
2022/01/08 05:16:24;;;;;;;5.20;1.35;;;3.00;99.90;;;;;;5026765;28;20033;-80
2022/01/08 05:18:52;;;;;;;5.55;1.50;;;3.00;99.90;;;;;;5025410;28;20108;-80
2022/01/08 05:23:44;;;;;;;5.63;1.00;;;3.20;99.90;;;;;;5044567;28;20665;-80
2022/01/08 05:26:10;;;;;;;6.45;1.20;;;2.90;99.90;;;;;;5025115;28;20045;-80
2022/01/08 05:28:36;;;;;;;6.85;1.20;;;2.90;99.90;;;;;;5023730;28;20512;-79
2022/01/08 05:31:01;;;;;;;5.13;1.45;;;2.80;99.90;;;;;;5008409;28;20125;-80
2022/01/08 05:33:27;;;;;;;6.00;1.67;;;2.80;99.90;;;;;;5028536;28;20094;-82
2022/01/08 05:35:53;;;;;;;7.32;2.00;;;2.80;99.90;;;;;;5025411;28;20044;-80
2022/01/08 05:38:18;;;;;;;7.97;2.10;;;2.80;99.90;;;;;;5028932;28;20033;-79
2022/01/08 05:40:44;;;;;;;4.22;1.50;;;2.70;99.90;;;;;;5025201;28;20068;-80
2022/01/08 05:43:10;;;;;;;7.30;1.73;;;2.70;99.90;;;;;;5012006;28;20145;-80
2022/01/08 05:45:35;;;;;;;8.63;2.10;;;2.70;99.90;;;;;;5024464;28;20063;-82
2022/01/08 05:48:01;;;;;;;9.48;1.75;;;2.70;99.90;;;;;;5026942;28;20049;-80
2022/01/08 05:50:27;;;;;;;3.85;1.52;;;2.60;99.90;;;;;;5023661;28;20038;-80
2022/01/08 05:52:53;;;;;;;8.55;1.77;;;2.60;99.90;;;;;;5040457;28;20505;-78
2022/01/08 05:55:18;;;;;;;3.95;1.67;;;2.50;99.90;;;;;;5034020;28;20061;-81
2022/01/08 05:57:44;;;;;;;5.68;1.63;;;2.50;99.90;;;;;;5024449;28;20482;-83
2022/01/08 06:00:10;;;;;;;4.75;1.77;;;2.40;99.90;;;;;;5023335;28;20494;-84
2022/01/08 06:02:37;;;;;;;4.78;1.55;;;2.40;99.90;;;;;;5024883;28;20049;-78
2022/01/08 06:05:05;;;;;;;13.98;3.25;;;2.40;99.90;;;;;;5027634;28;20064;-81
2022/01/08 06:07:31;;;;;;;8.48;1.80;;;2.40;99.90;;;;;;5028599;28;20052;-79
2022/01/08 06:09:56;;;;;;;9.18;2.17;;;2.30;99.90;;;;;;5043694;28;20041;-79
2022/01/08 06:12:22;;;;;;;5.95;2.28;;;2.30;99.90;;;;;;5013267;28;20175;-82
2022/01/08 06:14:48;;;;;;;7.00;2.00;;;2.20;99.90;;;;;;5023934;28;20056;-79
2022/01/08 06:17:13;;;;;;;8.38;1.70;;;2.20;99.90;;;;;;5009683;28;20069;-79
2022/01/08 06:19:39;;;;;;;7.10;2.25;;;2.10;99.90;;;;;;5027607;28;20413;-79
2022/01/08 06:22:05;;;;;;;8.27;2.20;;;2.10;99.90;;;;;;5028153;28;20037;-79
2022/01/08 06:24:31;;;;;;;4.93;2.03;;;2.10;99.90;;;;;;5027582;28;20112;-79
2022/01/08 06:26:56;;;;;;;4.53;1.98;;;2.10;99.90;;;;;;5026099;28;20498;-82
2022/01/08 06:29:26;;;;;;;7.35;2.40;;;2.10;99.90;;;;;;5023133;28;20052;-79
2022/01/08 06:31:53;;;;;;;10.35;2.25;;;2.10;99.90;;;;;;5007362;28;20484;-79
2022/01/08 06:34:19;;;;;;;5.65;2.22;;;2.10;99.90;;;;;;5025646;28;20750;-79
2022/01/08 06:36:47;;;;;;;9.05;2.20;;;2.10;99.90;;;;;;5029164;28;20034;-79
2022/01/08 06:39:14;;;;;;;11.27;2.05;;;2.10;99.90;;;;;;5030059;28;20134;-79
2022/01/08 06:41:39;;;;;;;4.88;1.83;;;2.10;99.90;;;;;;5045660;28;20460;-79
2022/01/08 06:44:05;;;;;;;5.85;1.95;;;2.00;99.90;;;;;;5028023;28;20033;-79
2022/01/08 06:46:31;;;;;;;6.68;2.40;;;2.00;99.90;;;;;;5028189;28;20485;-79
2022/01/08 06:48:57;;;;;;;6.03;2.17;;;2.00;99.90;;;;;;5032655;28;20044;-78
2022/01/08 06:51:24;;;;;;;12.82;2.45;;;1.90;99.90;;;;;;5026203;28;20040;-80
2022/01/08 06:53:49;;;;;;;5.40;2.65;;;1.90;99.90;;;;;;5010088;28;20040;-82
2022/01/08 06:56:17;;;;;;;6.78;2.47;;;1.90;99.90;;;;;;5010909;28;20045;-78
2022/01/08 06:58:43;;;;;;;14.25;2.40;;;1.90;99.90;;;;;;5027554;28;20049;-79
2022/01/08 07:01:09;;;;;;;5.88;2.08;;;1.80;99.90;;;;;;5023691;28;20222;-81
2022/01/08 07:03:34;;;;;;;9.32;2.78;;;1.80;99.90;;;;;;4994697;28;20095;-82
2022/01/08 07:06:00;;;;;;;10.57;2.33;;;1.80;99.90;;;;;;5030405;28;20129;-80
2022/01/08 07:08:25;;;;;;;8.95;2.17;;;1.80;99.90;;;;;;5008103;28;20052;-79
2022/01/08 07:10:51;;;;;;;9.60;2.35;;;1.80;99.90;;;;;;5027607;28;20041;-79
2022/01/08 07:13:17;;;;;;;6.22;2.20;;;1.80;99.90;;;;;;5045652;28;20112;-83
2022/01/08 07:15:43;;;;;;;8.30;2.42;;;1.70;99.90;;;;;;5010600;28;20033;-80
2022/01/08 07:18:08;;;;;;;7.80;2.38;;;1.70;99.90;;;;;;5025941;28;20091;-79
2022/01/08 07:20:34;;;;;;;8.48;2.53;;;1.70;99.90;;;;;;5010147;28;20127;-81
2022/01/08 07:23:00;;;;;;;7.88;2.55;;;1.80;99.90;;;;;;5028047;28;20047;-78
2022/01/08 07:25:26;;;;;;;4.47;1.60;;;1.70;99.90;;;;;;5039557;28;20210;-81
2022/01/08 07:27:52;;;;;;;7.85;2.00;;;1.70;99.90;;;;;;5027146;28;20398;-81
2022/01/08 07:30:18;;;;;;;7.20;1.65;;;1.70;99.90;;;;;;5023163;28;20044;-82
2022/01/08 07:32:45;;;;;;;13.57;3.33;;;1.80;99.90;;;;;;5036270;28;20033;-79
2022/01/08 07:35:14;;;;;;;8.55;2.40;;;1.80;99.90;;;;;;5020194;28;20045;-78
2022/01/08 07:37:40;;;;;;;6.25;2.28;;;1.80;99.90;;;;;;5014051;28;20522;-79
2022/01/08 07:40:06;;;;;;;6.07;2.60;;;1.80;99.90;;;;;;5024981;28;20080;-78
2022/01/08 07:42:32;;;;;;;9.10;2.05;;;1.80;99.90;;;;;;5018758;28;20063;-77
2022/01/08 07:44:58;;;;;;;10.05;2.65;;;1.90;99.90;;;;;;5022286;28;20501;-80
2022/01/08 07:47:24;;;;;;;14.82;2.80;;;1.90;99.90;;;;;;5023797;28;20041;-79
2022/01/08 07:49:49;;;;;;;8.07;2.80;;;1.90;99.90;;;;;;5036818;28;20040;-82
2022/01/08 07:52:16;;;;;;;8.38;2.47;;;1.90;99.90;;;;;;5026389;28;20052;-79
2022/01/08 07:54:42;;;;;;;7.18;2.40;;;1.90;99.90;;;;;;5023190;28;20256;-79
2022/01/08 07:57:08;;;;;;;12.57;2.78;;;1.90;99.90;;;;;;4999463;28;20025;-80
2022/01/08 07:59:34;;;;;;;9.90;2.53;;;1.90;99.90;;;;;;5006860;28;20644;-79
2022/01/08 08:02:00;;;;;;;14.73;2.75;;;1.90;99.90;;;;;;5041923;28;20039;-79
2022/01/08 08:04:25;;;;;;;10.15;3.65;;;1.90;99.90;;;;;;5024693;28;20083;-79
2022/01/08 08:06:51;;;;;;;11.65;3.00;;;1.90;99.90;;;;;;5026230;28;20037;-80
2022/01/08 08:09:17;;;;;;;8.30;3.15;;;1.90;99.90;;;;;;5026687;28;20059;-80
2022/01/08 08:11:43;;;;;;;14.57;3.30;;;1.90;99.90;;;;;;5023600;28;20032;-80
2022/01/08 08:14:10;;;;;;;12.02;3.88;;;1.90;99.90;;;;;;5017454;28;20114;-79
2022/01/08 08:16:36;;;;;;;8.07;2.53;;;2.00;99.90;;;;;;5007753;28;20029;-80
2022/01/08 08:19:02;;;;;;;9.95;2.92;;;2.00;99.90;;;;;;5022403;28;20048;-80
2022/01/08 08:21:28;;;;;;;9.98;3.03;;;2.00;99.90;;;;;;5036515;28;20037;-82
2022/01/08 08:23:53;;;;;;;10.98;3.03;;;2.00;99.90;;;;;;5009487;28;20535;-79
2022/01/08 08:26:19;;;;;;;11.10;3.45;;;2.00;99.90;;;;;;5024011;28;20090;-83
2022/01/08 08:28:45;;;;;;;9.93;3.10;;;2.10;99.90;;;;;;5006713;28;20045;-79
2022/01/08 08:31:11;;;;;;;9.40;2.92;;;2.10;99.90;;;;;;5009638;28;20051;-79
2022/01/08 08:33:38;;;;;;;9.50;3.22;;;2.10;99.90;;;;;;5007367;28;20133;-79
2022/01/08 08:36:05;;;;;;;8.90;3.28;;;2.10;99.90;;;;;;5018706;28;20033;-80
2022/01/08 08:38:31;;;;;;;11.52;3.10;;;2.10;99.90;;;;;;5007050;28;20041;-80
2022/01/08 08:40:56;;;;;;;12.15;4.40;;;2.20;99.90;;;;;;5010941;28;20652;-80
2022/01/08 08:43:22;;;;;;;10.43;3.58;;;2.20;99.90;;;;;;5004880;28;20052;-80
2022/01/08 08:45:50;;;;;;;10.20;3.70;;;2.20;99.90;;;;;;5004904;28;20509;-79
2022/01/08 08:48:16;;;;;;;7.85;3.42;;;2.20;99.90;;;;;;5020707;28;20124;-80
2022/01/08 08:50:43;;;;;;;8.95;3.35;;;2.30;99.90;;;;;;5023225;28;20097;-79
2022/01/08 08:53:09;;;;;;;13.20;4.20;;;2.30;99.90;;;;;;5011200;28;20033;-79
2022/01/08 08:55:35;;;;;;;12.07;3.60;;;2.30;99.90;;;;;;5017321;28;20045;-79
2022/01/08 08:58:00;;;;;;;9.40;3.50;;;2.30;99.90;;;;;;4988821;28;20033;-80
2022/01/08 09:00:26;;;;;;;8.15;2.90;;;2.30;99.90;;;;;;4993079;28;20049;-85
2022/01/08 09:02:52;;;;;;;12.07;3.42;;;2.40;99.90;;;;;;5038139;28;20476;-82
2022/01/08 09:05:18;;;;;;;15.93;4.10;;;2.30;99.90;;;;;;5009671;28;20075;-80
2022/01/08 09:07:44;;;;;;;11.25;3.85;;;2.30;99.90;;;;;;5005734;28;20550;-83
2022/01/08 09:10:10;;;;;;;11.35;3.83;;;2.40;99.90;;;;;;5022308;28;20041;-80
2022/01/08 09:12:41;;;;;;;6.25;3.55;;;2.40;99.90;;;;;;5007538;28;20055;-80
2022/01/08 09:15:09;;;;;;;12.10;3.88;;;2.40;99.90;;;;;;5022569;28;20090;-80
2022/01/08 09:17:39;;;;;;;12.23;4.18;;;2.40;99.90;;;;;;5019650;28;20040;-79
2022/01/08 09:20:06;;;;;;;14.43;4.90;;;2.50;99.90;;;;;;5006413;28;20119;-80
2022/01/08 09:22:32;;;;;;;9.32;3.78;;;2.50;99.90;;;;;;5033260;28;20516;-83
2022/01/08 09:24:58;;;;;;;9.35;3.50;;;2.60;99.90;;;;;;5020638;28;20048;-82
2022/01/08 09:27:24;;;;;;;10.63;4.53;;;2.60;99.90;;;;;;5014587;28;20037;-81
2022/01/08 09:29:50;;;;;;;17.08;4.28;;;2.80;99.90;;;;;;5019794;28;20693;-78
2022/01/08 09:32:17;;;;;;;7.85;3.95;;;2.80;99.90;;;;;;5021393;28;20064;-83
2022/01/08 09:34:44;;;;;;;13.18;4.43;;;2.70;99.90;;;;;;5006638;28;20519;-80
2022/01/08 09:37:10;;;;;;;11.35;4.00;;;2.80;99.90;;;;;;5025211;28;20045;-82
2022/01/08 09:39:38;;;;;;;9.35;4.00;;;2.90;99.90;;;;;;5025710;28;20524;-81
2022/01/08 09:42:04;;;;;;;9.30;3.80;;;2.90;99.90;;;;;;5013119;28;20040;-82
2022/01/08 09:44:30;;;;;;;10.88;4.75;;;3.00;99.90;;;;;;5037176;28;20095;-82
2022/01/08 09:46:55;;;;;;;9.68;3.72;;;3.00;99.90;;;;;;5010775;28;20037;-82
2022/01/08 09:49:21;;;;;;;10.90;3.90;;;3.00;99.90;;;;;;5027012;28;20036;-83
2022/01/08 09:51:47;;;;;;;7.93;3.65;;;3.00;99.90;;;;;;5023115;28;20048;-83
2022/01/08 09:54:12;;;;;;;13.45;3.88;;;3.10;99.90;;;;;;5026274;28;20044;-80
2022/01/08 09:56:38;;;;;;;12.75;3.95;;;3.20;99.90;;;;;;5019770;28;20037;-81
2022/01/08 09:59:04;;;;;;;14.25;3.70;;;3.30;99.90;;;;;;5061619;28;20120;-80
2022/01/08 10:01:32;;;;;;;10.25;3.72;;;3.30;99.90;;;;;;5024429;28;20033;-80
2022/01/08 10:03:59;;;;;;;9.73;3.38;;;3.50;99.90;;;;;;5023347;28;20157;-82
2022/01/08 10:06:31;;;;;;;14.27;4.15;;;3.40;99.90;;;;;;5022069;28;20041;-81
2022/01/08 10:08:57;;;;;;;11.73;4.28;;;3.40;99.90;;;;;;5026618;28;20045;-80
2022/01/08 10:11:23;;;;;;;11.27;4.18;;;3.40;99.90;;;;;;5004533;28;20057;-80
2022/01/08 10:14:00;;;;;;;13.32;3.92;;;3.40;99.90;;;;;;5029986;28;20033;-81
2022/01/08 10:19:23;;;;;;;17.30;4.00;;;3.50;99.90;;;;;;5039965;28;20242;-80
2022/01/08 10:21:49;;;;;;;13.63;4.10;;;3.40;99.90;;;;;;5003873;28;20033;-81
2022/01/08 10:24:26;;;;;;;13.55;4.15;;;3.40;99.90;;;;;;5019820;28;20112;-82
2022/01/08 10:26:59;;;;;;;14.88;4.18;;;3.50;99.90;;;;;;5006514;28;20176;-80
2022/01/08 10:29:25;;;;;;;14.60;3.80;;;3.50;99.90;;;;;;5022222;28;20051;-82
2022/01/08 10:31:53;;;;;;;10.07;3.95;;;3.50;99.90;;;;;;5027119;28;20037;-81
2022/01/08 10:34:27;;;;;;;14.35;4.90;;;3.60;99.90;;;;;;5027414;28;20029;-78
2022/01/08 10:36:56;;;;;;;13.13;3.50;;;3.70;99.90;;;;;;5027394;28;20326;-80
2022/01/08 10:39:53;;;;;;;12.95;3.90;;;3.60;99.90;;;;;;5024815;28;20076;-81
2022/01/08 10:42:19;;;;;;;10.93;3.90;;;3.60;99.90;;;;;;5023690;28;20525;-79
2022/01/08 10:44:47;;;;;;;15.23;4.85;;;3.60;99.90;;;;;;5028933;28;20130;-79
2022/01/08 10:47:17;;;;;;;12.02;3.90;;;3.60;99.90;;;;;;5025393;28;20045;-80
2022/01/08 10:49:42;;;;;;;14.40;4.78;;;3.70;99.90;;;;;;5008076;28;20037;-79
2022/01/08 10:52:14;;;;;;;8.50;4.63;;;3.70;99.90;;;;;;5021495;28;20501;-79
2022/01/08 10:54:42;;;;;;;15.63;5.90;;;3.70;99.90;;;;;;5039185;28;20369;-79
2022/01/08 10:57:09;;;;;;;13.63;4.82;;;3.80;99.90;;;;;;5049033;28;20036;-78
2022/01/08 10:59:36;;;;;;;12.65;4.55;;;3.70;99.90;;;;;;5021986;28;20405;-79
2022/01/08 11:02:11;;;;;;;14.73;5.38;;;3.70;99.90;;;;;;5014496;28;20187;-78
2022/01/08 11:04:50;;;;;;;13.48;5.35;;;3.80;99.90;;;;;;5022733;28;20068;-80
2022/01/08 11:07:17;;;;;;;15.98;6.35;;;3.80;99.90;;;;;;5042673;28;20033;-79
2022/01/08 11:09:45;;;;;;;13.77;5.63;;;3.80;99.90;;;;;;5025628;28;20100;-80
2022/01/08 11:12:16;;;;;;;8.45;4.18;;;3.90;99.90;;;;;;5056895;28;20041;-79
2022/01/08 11:17:33;;;;;;;13.50;5.22;;;3.90;99.90;;;;;;5008230;28;20061;-56
2022/01/08 11:20:07;;;;;;;11.68;5.20;;;3.90;99.90;;;;;;5005320;28;20121;-55
2022/01/08 11:22:36;;;;;;;14.52;5.40;;;4.00;99.90;;;;;;5012282;28;20053;-56
2022/01/08 11:25:02;;;;;;;15.57;5.65;;;4.00;99.90;;;;;;4992893;28;20345;-56
2022/01/08 11:28:01;;;;;;;23.40;6.78;;;4.00;99.90;;;;;;5009790;28;20041;-58
2022/01/08 11:30:33;;;;;;;10.13;5.13;;;4.00;99.90;;;;;;4971765;28;20176;-57
2022/01/08 11:33:06;;;;;;;11.98;5.78;;;4.00;99.90;;;;;;5010775;28;20094;-56
2022/01/08 11:35:35;;;;;;;13.98;6.22;;;4.10;99.90;;;;;;4993416;28;20064;-56
2022/01/08 11:38:04;;;;;;;13.70;5.80;;;4.10;99.90;;;;;;5008881;28;20049;-54
2022/01/08 11:40:31;;;;;;;13.05;6.35;;;4.10;99.90;;;;;;4988507;28;20060;-57
2022/01/08 11:43:04;;;;;;;14.93;5.78;;;4.10;99.90;;;;;;5004988;28;20049;-56
2022/01/08 11:45:34;;;;;;;13.98;5.88;;;4.10;99.90;;;;;;4993846;28;20033;-55
2022/01/08 11:48:02;;;;;;;13.90;6.70;;;4.10;99.90;;;;;;5005015;28;20406;-56
2022/01/08 11:50:29;;;;;;;13.50;6.07;;;4.10;99.90;;;;;;4995211;28;20080;-56
2022/01/08 11:53:23;;;;;;;15.00;5.78;;;4.10;99.90;;;;;;5003195;28;20042;-54
2022/01/08 11:55:58;;;;;;;16.17;6.30;;;4.20;99.90;;;;;;4995196;28;20045;-56
2022/01/08 11:58:26;;;;;;;12.15;5.85;;;4.20;99.90;;;;;;4991314;28;20538;-56
2022/01/08 12:00:55;;;;;;;15.32;5.75;;;4.20;99.90;;;;;;4993289;28;20041;-56
2022/01/08 12:03:51;;;;;;;10.13;5.03;;;4.30;99.90;;;;;;4990116;28;20049;-57
2022/01/08 12:06:23;;;;;;;10.45;5.32;;;4.30;99.90;;;;;;4984339;28;20831;-56
2022/01/08 12:11:47;;;;;;;12.02;6.93;;;4.30;99.90;;;;;;5014009;28;20187;-56
2022/01/08 12:14:15;;;;;;;15.68;6.88;;;4.40;99.90;;;;;;4986610;28;20125;-56
2022/01/08 12:16:43;;;;;;;11.82;6.53;;;4.30;99.90;;;;;;5005040;28;20041;-56
2022/01/08 12:19:26;;;;;;;14.40;7.70;;;4.40;99.90;;;;;;4991377;28;20525;-56
2022/01/08 12:21:52;;;;;;;11.73;6.40;;;4.40;99.90;;;;;;4975902;28;20643;-53
2022/01/08 12:24:27;;;;;;;16.98;7.18;;;4.40;99.90;;;;;;5011536;28;20120;-56
2022/01/08 12:26:57;;;;;;;14.93;7.38;;;4.40;99.90;;;;;;4995555;28;20128;-57
2022/01/08 12:29:40;;;;;;;14.35;7.47;;;4.40;99.90;;;;;;4990498;28;20526;-56
2022/01/08 12:32:40;;;;;;;13.30;7.30;;;4.40;99.90;;;;;;4989859;28;20052;-56
2022/01/08 12:35:19;;;;;;;12.82;6.95;;;4.50;99.90;;;;;;5014028;28;20041;-57
2022/01/08 12:37:47;;;;;;;11.82;7.20;;;4.50;99.90;;;;;;5004688;28;20052;-56
2022/01/08 12:40:35;;;;;;;15.27;7.38;;;4.40;99.90;;;;;;4996508;28;20041;-56
2022/01/08 12:43:31;;;;;;;17.88;7.97;;;4.40;99.90;;;;;;5003832;28;20055;-58
2022/01/08 12:46:15;;;;;;;14.73;8.05;;;4.40;99.90;;;;;;4990545;28;20528;-57
2022/01/08 12:48:59;;;;;;;;;;;4.40;99.90;;;;;;4988670;28;20069;-57
2022/01/08 12:51:39;;;;;;;13.45;8.48;;;4.30;99.90;;;;;;4988346;28;19921;-56
2022/01/08 12:54:05;;;;;;;11.98;8.57;;;4.30;99.90;;;;;;5005627;28;20046;-58
2022/01/08 12:56:31;;;;;;;15.10;8.65;;;4.30;99.90;;;;;;4986735;28;20049;-57
2022/01/08 12:58:57;;;;;;;14.00;8.65;;;4.30;99.90;;;;;;5008246;28;20484;-57
2022/01/08 13:01:24;;;;;;;13.75;9.30;;;4.20;99.90;;;;;;4987931;28;20092;-58
2022/01/08 13:03:53;;;;;;;17.42;9.38;;;4.20;99.90;;;;;;5002047;28;20066;-56
2022/01/08 13:06:29;;;;;;;14.38;9.00;;;4.20;99.90;;;;;;5004728;28;20048;-58
2022/01/08 13:08:55;;;;;;;16.55;10.13;;;4.20;99.90;;;;;;4981592;28;20947;-57
2022/01/08 13:11:24;;;;;;;16.27;11.48;;;4.20;99.90;;;;;;5028639;28;20045;-58
2022/01/08 13:14:00;;;;;;;15.00;9.98;;;4.20;99.90;;;;;;5023917;28;20064;-59
2022/01/08 13:16:30;;;;;;;12.18;8.65;;;4.30;99.90;;;;;;5007005;28;20492;-56
2022/01/08 13:19:11;;;;;;;13.88;8.68;;;4.20;99.90;;;;;;5004207;28;20424;-58
2022/01/08 13:21:47;;;;;;;11.13;8.10;;;4.20;99.90;;;;;;4986043;28;20041;-56
2022/01/08 13:24:26;;;;;;;11.55;7.80;;;4.20;99.90;;;;;;4998313;28;20044;-54
2022/01/08 13:26:52;;;;;;;14.27;8.60;;;4.20;99.90;;;;;;5005982;28;20060;-53
2022/01/08 13:29:31;;;;;;;15.40;7.32;;;4.20;99.90;;;;;;4996623;28;20041;-56